Time;durP1;ratioP1;P1;durP2;ratioP2;P2;SDS_P1;SDS_P2;PMS_P1;PMS_P2;Temp;Humidity;BMP_temperature;BMP_pressure;BME280_temperature;BME280_humidity;BME280_pressure;Samples;Min_cycle;Max_cycle;Signal;HPM_P1;HPM_P2
2023/06/01 00:01:12;;;;;;;4.53;2.73;;;;;;;8.36;80.90;97901.28;6159396;28;20230;-91
2023/06/01 00:04:16;;;;;;;3.93;2.73;;;;;;;8.72;81.08;97979.34;6169156;28;20242;-90
2023/06/01 00:07:20;;;;;;;3.10;2.60;;;;;;;8.74;81.11;97962.13;6146926;28;20236;-91
2023/06/01 00:10:23;;;;;;;4.40;2.50;;;;;;;9.28;80.94;98034.03;6165847;28;20247;-92
2023/06/01 00:13:25;;;;;;;5.73;2.63;;;;;;;8.44;80.54;97895.69;6174690;28;20254;-92
2023/06/01 00:16:30;;;;;;;4.03;2.37;;;;;;;8.65;80.91;97936.91;6162686;28;20219;-91
2023/06/01 00:19:34;;;;;;;4.63;2.50;;;;;;;8.89;81.42;97977.69;6159170;28;20253;-90
2023/06/01 00:22:40;;;;;;;6.27;2.67;;;;;;;8.96;81.03;97961.63;6185628;28;20360;-90
2023/06/01 00:25:42;;;;;;;5.87;2.53;;;;;;;8.29;81.09;97887.25;6164413;28;20233;-90
2023/06/01 00:28:45;;;;;;;5.10;2.90;;;;;;;7.70;81.26;97791.38;6143366;28;20239;-91
2023/06/01 00:31:48;;;;;;;6.00;2.80;;;;;;;7.91;81.74;97813.19;6177487;28;20242;-90
2023/06/01 00:34:50;;;;;;;5.33;3.10;;;;;;;8.22;82.19;97894.47;6184339;28;20241;-91
2023/06/01 00:37:54;;;;;;;7.33;2.73;;;;;;;7.13;82.41;97716.53;6197100;28;20307;-90
2023/06/01 00:40:57;;;;;;;5.17;2.63;;;;;;;6.90;82.50;97677.44;6159548;28;20234;-91
2023/06/01 00:44:00;;;;;;;3.53;2.67;;;;;;;9.04;82.69;97999.34;6171975;28;20247;-91
2023/06/01 00:47:04;;;;;;;8.93;5.93;;;;;;;7.87;82.94;97838.53;6163661;28;20255;-91
2023/06/01 00:50:07;;;;;;;8.90;4.53;;;;;;;8.97;83.67;97997.84;6152396;28;20239;-89
2023/06/01 00:53:17;;;;;;;5.47;2.80;;;;;;;7.36;83.54;97774.19;6129757;28;20244;-91
2023/06/01 00:56:21;;;;;;;5.63;3.33;;;;;;;7.05;83.91;97719.47;6160954;28;20232;-91
2023/06/01 00:59:24;;;;;;;9.03;3.10;;;;;;;8.88;84.55;97999.16;6168198;28;20237;-90
2023/06/01 01:02:31;;;;;;;4.73;2.87;;;;;;;7.09;84.24;97714.53;6163306;28;20243;-90
2023/06/01 01:05:35;;;;;;;7.93;3.00;;;;;;;7.42;84.47;97804.31;6163057;28;20227;-89
2023/06/01 01:08:51;;;;;;;4.30;3.40;;;;;;;7.81;85.00;97861.44;6166108;28;20300;-90
2023/06/01 01:12:07;;;;;;;5.07;2.77;;;;;;;8.69;84.51;97982.41;6164438;28;20240;-89
2023/06/01 01:15:32;;;;;;;4.20;2.80;;;;;;;7.00;84.41;97731.75;6169694;28;20250;-91
2023/06/01 01:18:54;;;;;;;3.53;2.60;;;;;;;8.15;84.39;97894.56;6171498;28;20234;-89
2023/06/01 01:22:36;;;;;;;4.27;2.73;;;;;;;5.96;84.31;97532.94;6134345;28;20235;-89
2023/06/01 01:26:00;;;;;;;4.17;2.80;;;;;;;8.89;84.23;97988.31;6163623;28;20289;-90
2023/06/01 01:29:09;;;;;;;3.13;2.70;;;;;;;7.76;84.39;97818.88;6193008;28;20294;-91
2023/06/01 01:32:13;;;;;;;2.77;2.50;;;;;;;8.43;84.19;97943.72;6178057;28;20720;-92
2023/06/01 01:35:17;;;;;;;2.87;2.57;;;;;;;8.90;83.68;97991.78;6156459;28;20248;-92
2023/06/01 01:38:20;;;;;;;6.77;2.97;;;;;;;7.85;84.40;97852.03;6172860;28;20220;-92
2023/06/01 01:41:22;;;;;;;6.23;2.97;;;;;;;6.89;84.39;97715.50;6147877;28;20236;-92
2023/06/01 01:44:25;;;;;;;5.53;2.67;;;;;;;8.58;85.00;97986.63;6122188;29;20230;-90
2023/06/01 01:47:41;;;;;;;6.00;3.13;;;;;;;8.06;85.80;97927.72;6174249;28;20240;-92
2023/06/01 01:50:54;;;;;;;4.10;3.07;;;;;;;8.45;86.33;98000.84;6182425;28;20227;-89
2023/06/01 01:53:58;;;;;;;5.23;3.10;;;;;;;7.13;85.90;97776.66;6189322;28;20256;-90
2023/06/01 01:57:02;;;;;;;4.77;3.20;;;;;;;8.04;85.98;97927.13;6177992;28;20233;-90
2023/06/01 02:00:07;;;;;;;3.60;2.63;;;;;;;6.42;85.73;97688.63;6204646;28;20256;-92
2023/06/01 02:03:18;;;;;;;4.90;2.67;;;;;;;7.18;85.31;97768.84;6188745;28;20213;-89
2023/06/01 02:06:20;;;;;;;3.40;2.80;;;;;;;6.54;85.63;97672.03;6174854;28;20249;-90
2023/06/01 02:09:23;;;;;;;5.97;2.97;;;;;;;7.64;85.54;97839.19;6177270;28;20218;-91
2023/06/01 02:12:25;;;;;;;7.73;3.03;;;;;;;7.67;85.25;97841.38;6194279;28;20222;-89
2023/06/01 02:15:28;;;;;;;3.40;2.70;;;;;;;7.33;85.78;97797.66;6195114;28;20220;-90
2023/06/01 02:18:31;;;;;;;5.97;3.03;;;;;;;8.12;86.06;97918.06;6187349;28;20272;-89
2023/06/01 02:21:34;;;;;;;4.17;3.13;;;;;;;7.40;86.01;97812.50;6190977;28;20225;-89
2023/06/01 02:24:37;;;;;;;5.13;2.70;;;;;;;7.41;86.43;97839.81;6227392;28;20217;-89
2023/06/01 02:27:39;;;;;;;4.17;2.57;;;;;;;7.43;86.56;97827.94;6209634;28;20223;-89
2023/06/01 02:30:42;;;;;;;4.10;3.30;;;;;;;5.69;86.15;97590.41;6170581;28;20209;-89
2023/06/01 02:33:45;;;;;;;4.77;3.03;;;;;;;7.83;86.01;97875.31;6195355;28;20226;-89
2023/06/01 02:36:48;;;;;;;4.90;2.70;;;;;;;7.65;86.33;97860.19;6215726;28;20214;-90
2023/06/01 02:39:51;;;;;;;3.13;2.33;;;;;;;8.37;86.52;97960.50;6209395;28;20220;-90
2023/06/01 02:42:55;;;;;;;3.17;2.77;;;;;;;7.86;86.02;97895.28;6170900;28;20868;-90
2023/06/01 02:45:58;;;;;;;5.57;3.10;;;;;;;7.42;86.13;97820.22;6141071;28;20236;-90
2023/06/01 02:49:00;;;;;;;5.83;2.90;;;;;;;5.76;86.23;97559.44;6188029;28;20795;-90
2023/06/01 02:52:03;;;;;;;5.60;2.90;;;;;;;6.21;85.96;97646.66;6194077;28;20229;-90
2023/06/01 02:55:06;;;;;;;3.57;3.10;;;;;;;6.48;85.88;97689.59;6186018;28;20228;-90
2023/06/01 02:58:35;;;;;;;3.40;2.83;;;;;;;6.00;85.96;97613.41;6162198;28;20225;-90
2023/06/01 03:01:44;;;;;;;4.93;3.10;;;;;;;8.24;86.37;97964.91;6176591;28;20230;-90
2023/06/01 03:04:48;;;;;;;4.50;2.67;;;;;;;7.53;86.21;97845.19;6177531;28;20233;-89
2023/06/01 03:07:51;;;;;;;8.10;3.60;;;;;;;6.80;86.11;97729.25;6194107;28;20233;-89
2023/06/01 03:10:59;;;;;;;6.23;2.90;;;;;;;6.82;87.08;97751.84;6179021;28;20252;-90
2023/06/01 03:14:07;;;;;;;5.20;3.13;;;;;;;7.56;87.44;97856.19;6148415;28;20260;-89
2023/06/01 03:17:09;;;;;;;5.60;3.30;;;;;;;7.09;87.67;97810.69;6182143;28;20232;-91
2023/06/01 03:20:15;;;;;;;6.30;3.37;;;;;;;8.07;87.48;97958.50;6183548;28;20236;-90
2023/06/01 03:23:18;;;;;;;3.50;2.70;;;;;;;8.08;87.54;97946.06;6183488;28;20653;-90
2023/06/01 03:26:22;;;;;;;3.50;3.00;;;;;;;7.31;87.26;97845.59;6192262;28;20730;-89
2023/06/01 03:29:24;;;;;;;3.67;2.80;;;;;;;7.45;87.57;97841.00;6182927;28;20588;-89
2023/06/01 03:32:27;;;;;;;2.87;2.50;;;;;;;8.22;87.38;97976.75;6182101;28;20221;-90
2023/06/01 03:35:30;;;;;;;4.57;3.00;;;;;;;7.42;87.85;97842.22;6150135;28;20360;-90
2023/06/01 03:38:34;;;;;;;4.07;2.67;;;;;;;7.39;87.99;97831.25;6130257;28;20321;-90
2023/06/01 03:41:37;;;;;;;5.00;2.80;;;;;;;6.53;87.67;97705.63;6136323;28;20225;-90
2023/06/01 03:44:41;;;;;;;6.03;3.00;;;;;;;6.41;88.30;97694.13;6185025;28;20667;-90
2023/06/01 03:47:44;;;;;;;8.33;3.53;;;;;;;7.71;88.78;97901.72;6148379;28;20245;-90
2023/06/01 03:50:47;;;;;;;6.33;3.00;;;;;;;6.33;89.25;97681.16;6157644;28;20238;-90
2023/06/01 03:53:49;;;;;;;5.40;3.53;;;;;;;6.62;89.27;97737.94;6140586;28;20242;-90
2023/06/01 03:56:52;;;;;;;4.73;3.20;;;;;;;8.15;89.27;97942.31;6156354;28;20245;-90
2023/06/01 03:59:54;;;;;;;3.57;3.00;;;;;;;8.15;89.40;97923.75;6139271;28;20304;-90
2023/06/01 04:02:59;;;;;;;3.37;2.80;;;;;;;7.10;89.01;97751.41;6124975;28;20841;-90
2023/06/01 04:06:03;;;;;;;3.83;3.00;;;;;;;7.89;88.59;97865.66;6111017;28;20226;-91
2023/06/01 04:09:06;;;;;;;3.30;2.60;;;;;;;6.41;88.69;97652.59;6141764;28;20222;-90
2023/06/01 04:12:13;;;;;;;4.17;2.80;;;;;;;8.44;88.87;97940.81;6140246;28;20218;-90
2023/06/01 04:15:18;;;;;;;5.40;3.37;;;;;;;7.83;88.71;97837.34;6156548;28;20362;-90
2023/06/01 04:18:21;;;;;;;4.27;3.03;;;;;;;7.39;88.37;97764.97;6143250;28;20249;-93
2023/06/01 04:21:32;;;;;;;3.53;2.97;;;;;;;5.10;87.84;97431.25;6151065;28;20233;-93
2023/06/01 04:24:35;;;;;;;4.37;3.10;;;;;;;5.39;88.40;97445.69;6121185;29;20224;-92
2023/06/01 04:27:44;;;;;;;4.33;3.50;;;;;;;7.43;88.73;97768.81;6138030;28;20356;-93
2023/06/01 04:30:49;;;;;;;3.83;3.10;;;;;;;6.48;88.41;97610.22;6142086;28;20229;-93
2023/06/01 04:33:53;;;;;;;5.97;3.07;;;;;;;5.80;88.55;97510.44;6142039;28;20235;-94
2023/06/01 04:36:59;;;;;;;4.07;3.33;;;;;;;8.64;88.80;97951.22;6175614;23;20306;-41
2023/06/01 04:40:09;;;;;;;6.53;3.43;;;;;;;8.69;89.10;97954.00;6084204;29;20236;-41
2023/06/01 04:43:18;;;;;;;5.17;3.60;;;;;;;8.61;88.65;97925.09;6085150;29;20236;-41
2023/06/01 04:46:24;;;;;;;5.70;3.37;;;;;;;8.80;88.96;97944.47;6084221;29;20242;-41
2023/06/01 04:49:31;;;;;;;4.53;3.43;;;;;;;8.86;89.18;97946.22;6076965;29;20335;-40
2023/06/01 04:52:35;;;;;;;6.03;3.20;;;;;;;8.92;90.24;97939.25;6051907;29;20327;-41
2023/06/01 04:55:37;;;;;;;5.67;3.70;;;;;;;8.96;90.05;97932.41;6078487;29;20264;-40
2023/06/01 04:58:40;;;;;;;7.43;3.33;;;;;;;9.02;90.58;97929.69;6084996;29;20236;-40
2023/06/01 05:01:43;;;;;;;5.83;3.60;;;;;;;9.14;90.61;97929.72;6065825;29;20743;-42
2023/06/01 05:04:45;;;;;;;6.97;3.97;;;;;;;9.13;90.20;97914.00;6056703;29;20236;-40
2023/06/01 05:07:48;;;;;;;4.87;3.40;;;;;;;9.32;89.92;97926.19;6083639;29;20603;-40
2023/06/01 05:10:51;;;;;;;5.53;3.37;;;;;;;9.40;90.15;97923.19;6069161;29;20231;-40
2023/06/01 05:13:57;;;;;;;3.67;3.10;;;;;;;9.50;90.28;97917.31;6084571;29;20241;-40
2023/06/01 05:17:01;;;;;;;5.17;3.30;;;;;;;9.61;89.75;97919.22;6065070;29;20230;-40
2023/06/01 05:20:05;;;;;;;7.30;3.20;;;;;;;9.71;90.14;97926.63;6084699;29;20237;-40
2023/06/01 05:23:07;;;;;;;6.13;3.30;;;;;;;9.79;89.71;97928.91;6082550;29;20234;-42
2023/06/01 05:26:09;;;;;;;3.57;2.70;;;;;;;9.74;89.54;97902.19;6061874;29;20230;-41
2023/06/01 05:29:12;;;;;;;5.27;3.33;;;;;;;9.97;89.45;97923.50;6051473;29;20672;-41
2023/06/01 05:32:14;;;;;;;6.23;3.20;;;;;;;10.07;89.20;97920.25;6083336;29;20268;-42
2023/06/01 05:35:17;;;;;;;4.97;2.97;;;;;;;10.17;89.55;97917.81;6067428;29;20239;-41
2023/06/01 05:38:20;;;;;;;6.60;3.60;;;;;;;10.30;88.83;97914.13;6091257;29;20368;-41
2023/06/01 05:41:22;;;;;;;5.17;3.40;;;;;;;10.43;88.72;97908.53;6097277;29;20479;-42
2023/06/01 05:44:25;;;;;;;4.47;3.20;;;;;;;10.53;88.46;97906.06;6099134;29;20240;-42
2023/06/01 05:47:27;;;;;;;3.13;2.83;;;;;;;10.66;88.39;97913.00;6101698;29;20240;-43
2023/06/01 05:50:30;;;;;;;3.43;2.77;;;;;;;10.77;88.20;97916.69;6097097;29;20238;-43
2023/06/01 05:53:32;;;;;;;5.67;2.90;;;;;;;10.86;87.42;97909.94;6107791;29;20241;-44
2023/06/01 05:56:37;;;;;;;4.07;2.67;;;;;;;10.83;87.06;97881.88;6107654;29;20234;-43
2023/06/01 05:59:42;;;;;;;3.83;2.70;;;;;;;11.08;86.47;97904.72;6091839;29;20572;-43
2023/06/01 06:02:44;;;;;;;3.60;2.40;;;;;;;11.32;86.42;97918.75;6116694;29;20645;-42
2023/06/01 06:05:46;;;;;;;3.77;2.70;;;;;;;11.48;86.12;97914.50;6106908;29;20326;-42
2023/06/01 06:08:50;;;;;;;5.47;2.40;;;;;;;11.64;85.52;97908.34;6122180;29;20242;-42
2023/06/01 06:11:52;;;;;;;7.43;3.10;;;;;;;11.85;84.13;97912.16;6117868;29;20254;-41
2023/06/01 06:14:54;;;;;;;3.47;2.50;;;;;;;12.12;83.35;97915.78;6107091;29;20275;-42
2023/06/01 06:17:57;;;;;;;4.87;2.47;;;;;;;12.26;83.34;97918.91;6109879;29;20230;-43
2023/06/01 06:20:59;;;;;;;5.10;3.07;;;;;;;12.50;82.29;97918.66;6107619;29;20254;-43
2023/06/01 06:24:03;;;;;;;2.73;2.33;;;;;;;12.72;82.19;97906.13;6107774;28;20316;-43
2023/06/01 06:27:06;;;;;;;3.33;3.00;;;;;;;13.17;81.54;97908.47;6108950;29;20310;-41
2023/06/01 06:30:09;;;;;;;4.50;2.70;;;;;;;13.48;80.68;97911.47;6113972;29;20245;-42
2023/06/01 06:33:13;;;;;;;4.10;2.90;;;;;;;13.82;80.42;97921.91;6111660;29;20699;-46
2023/06/01 06:36:16;;;;;;;4.40;2.20;;;;;;;14.12;79.16;97922.13;6110557;29;21794;-41
2023/06/01 06:39:20;;;;;;;3.00;2.40;;;;;;;14.34;78.32;97923.88;6131335;29;20298;-41
2023/06/01 06:42:24;;;;;;;3.67;2.30;;;;;;;14.59;78.46;97926.69;6134120;29;20227;-41
2023/06/01 06:45:26;;;;;;;3.30;2.20;;;;;;;14.82;77.47;97921.94;6135132;28;20238;-41
2023/06/01 06:48:29;;;;;;;3.27;2.20;;;;;;;15.05;76.12;97924.16;6141368;29;20777;-41
2023/06/01 06:51:32;;;;;;;5.63;2.60;;;;;;;15.23;74.21;97922.88;6138867;28;20324;-41
2023/06/01 06:54:35;;;;;;;5.33;2.37;;;;;;;15.42;73.90;97926.66;6135783;29;20243;-43
2023/06/01 07:01:25;;;;;;;2.60;2.17;;;;;;;15.33;72.67;97857.66;6085282;29;20247;-91
2023/06/01 07:04:28;;;;;;;2.90;2.27;;;;;;;15.38;72.33;97836.19;6069701;29;20232;-92
2023/06/01 07:07:31;;;;;;;2.37;1.73;;;;;;;14.48;70.99;97681.09;6070832;29;20244;-91
2023/06/01 07:10:33;;;;;;;2.60;2.17;;;;;;;14.85;70.21;97723.75;6078344;29;20283;-91
2023/06/01 07:13:36;;;;;;;3.17;1.83;;;;;;;14.86;69.69;97693.16;6076685;29;20868;-91
2023/06/01 07:16:39;;;;;;;3.57;2.20;;;;;;;15.00;69.29;97704.16;6092377;29;20282;-91
2023/06/01 07:19:41;;;;;;;3.67;2.30;;;;;;;14.87;69.27;97677.88;6089174;29;20235;-91
2023/06/01 07:22:43;;;;;;;3.97;1.97;;;;;;;16.70;69.06;97913.88;6074517;29;20232;-91
2023/06/01 07:25:46;;;;;;;2.73;2.00;;;;;;;15.82;67.88;97773.88;6089248;29;20352;-91
2023/06/01 07:28:53;;;;;;;4.30;2.30;;;;;;;15.70;67.26;97748.09;6087187;29;20267;-91
2023/06/01 07:31:55;;;;;;;4.03;2.00;;;;;;;17.00;67.40;97909.47;6091828;29;20240;-91
2023/06/01 07:34:59;;;;;;;3.27;2.00;;;;;;;15.68;65.89;97728.78;6076929;29;20240;-92
2023/06/01 07:38:03;;;;;;;3.43;2.10;;;;;;;15.80;65.58;97719.59;6075657;29;20239;-91
2023/06/01 07:41:05;;;;;;;2.53;2.10;;;;;;;15.71;64.44;97711.28;6074035;29;20788;-91
2023/06/01 07:44:08;;;;;;;5.00;2.37;;;;;;;15.62;64.56;97657.34;6078863;29;20227;-91
2023/06/01 07:47:11;;;;;;;2.87;2.10;;;;;;;17.01;64.64;97862.63;6075199;29;20231;-91
2023/06/01 07:50:15;;;;;;;3.63;1.90;;;;;;;17.72;64.76;97913.25;6077660;29;20779;-92
2023/06/01 07:53:18;;;;;;;3.17;1.80;;;;;;;16.94;64.24;97765.22;6073229;29;20704;-92
2023/06/01 07:56:21;;;;;;;5.30;2.30;;;;;;;16.30;63.07;97651.34;6077917;29;20244;-92
2023/06/01 07:59:27;;;;;;;2.73;2.17;;;;;;;18.15;63.22;97932.31;6060346;29;20778;-91
2023/06/01 08:02:30;;;;;;;4.57;2.27;;;;;;;17.16;61.40;97762.91;6078818;29;20224;-92
2023/06/01 08:05:37;;;;;;;5.80;2.37;;;;;;;18.37;59.84;97901.34;6071817;29;20239;-91
2023/06/01 08:08:40;;;;;;;5.10;2.37;;;;;;;18.58;59.69;97910.03;6082392;29;20220;-91
2023/06/01 08:11:43;;;;;;;4.67;2.07;;;;;;;18.54;56.47;97874.72;6083510;29;20977;-91
2023/06/01 08:14:46;;;;;;;3.30;2.10;;;;;;;17.74;53.27;97736.00;6082828;29;20228;-91
2023/06/01 08:17:48;;;;;;;4.00;1.70;;;;;;;17.77;53.41;97689.59;6069703;29;20235;-91
2023/06/01 08:20:51;;;;;;;4.17;1.97;;;;;;;17.63;49.99;97644.75;6081882;29;20578;-92
2023/06/01 08:23:56;;;;;;;3.80;2.13;;;;;;;17.95;45.13;97642.22;6075636;29;20236;-92
2023/06/01 08:26:58;;;;;;;3.43;1.90;;;;;;;19.42;49.02;97869.75;6058762;29;20735;-91
2023/06/01 08:30:01;;;;;;;5.40;2.10;;;;;;;18.27;48.21;97664.94;6061050;29;20242;-92
2023/06/01 08:33:03;;;;;;;2.87;2.20;;;;;;;19.16;44.65;97791.00;6077595;29;20254;-91
2023/06/01 08:36:06;;;;;;;5.37;2.43;;;;;;;18.78;45.82;97702.00;6077766;29;20712;-92
2023/06/01 08:39:23;;;;;;;4.13;1.80;;;;;;;18.97;44.47;97693.88;6079192;29;20208;-93
2023/06/01 08:42:35;;;;;;;5.10;1.80;;;;;;;19.87;46.14;97843.88;6085722;29;20414;-91
2023/06/01 08:45:39;;;;;;;3.23;1.90;;;;;;;19.80;41.70;97803.75;6076235;29;20244;-91
2023/06/01 08:48:43;;;;;;;5.90;2.13;;;;;;;18.54;37.95;97559.88;6070722;29;20236;-91
2023/06/01 08:51:51;;;;;;;7.50;2.53;;;;;;;18.84;38.37;97627.13;6073997;29;20232;-91
2023/06/01 08:54:54;;;;;;;4.10;2.10;;;;;;;20.07;37.92;97788.63;6081131;29;20299;-91
2023/06/01 08:57:56;;;;;;;5.67;2.10;;;;;;;19.77;37.67;97731.34;6080593;29;20243;-91
2023/06/01 09:00:59;;;;;;;2.40;1.83;;;;;;;20.93;39.41;97882.69;6061296;29;20235;-92
2023/06/01 09:04:02;;;;;;;5.13;1.70;;;;;;;20.44;37.47;97803.00;6066006;29;20232;-91
2023/06/01 09:07:05;;;;;;;8.83;1.90;;;;;;;20.14;37.33;97759.25;6075574;29;20743;-91
2023/06/01 09:10:08;;;;;;;3.47;2.00;;;;;;;21.06;38.03;97889.97;6060932;29;20234;-90
2023/06/01 09:13:11;;;;;;;5.37;2.03;;;;;;;19.45;39.64;97610.59;6073959;29;20228;-91
2023/06/01 09:16:14;;;;;;;2.90;1.87;;;;;;;20.52;41.11;97753.63;6060015;29;20269;-91
2023/06/01 09:19:31;;;;;;;4.63;2.27;;;;;;;20.09;36.64;97680.94;6074500;29;20625;-91
2023/06/01 09:22:42;;;;;;;4.80;2.10;;;;;;;20.92;37.39;97819.59;6055699;29;20235;-91
2023/06/01 09:25:45;;;;;;;6.17;2.07;;;;;;;20.41;41.60;97738.69;6079553;29;20288;-93
2023/06/01 09:29:00;;;;;;;3.73;2.17;;;;;;;21.33;36.46;97854.72;6064069;29;20723;-91
2023/06/01 09:32:03;;;;;;;5.87;2.43;;;;;;;20.55;38.31;97732.16;6075251;29;20633;-92
2023/06/01 09:35:07;;;;;;;5.17;2.53;;;;;;;20.23;37.27;97679.00;6076153;29;20321;-91
2023/06/01 09:38:11;;;;;;;4.40;2.80;;;;;;;19.73;38.08;97607.91;6079766;29;20719;-92
2023/06/01 09:41:14;;;;;;;5.00;2.53;;;;;;;20.23;38.23;97653.84;6060847;29;20259;-91
2023/06/01 09:44:36;;;;;;;5.17;2.57;;;;;;;21.68;39.90;97844.09;6079403;29;20216;-90
2023/06/01 09:47:39;;;;;;;7.83;2.87;;;;;;;21.03;38.06;97742.44;6071758;29;20243;-91
2023/06/01 09:50:42;;;;;;;4.77;2.70;;;;;;;20.63;38.79;97706.25;6056578;29;20244;-91
2023/06/01 09:53:45;;;;;;;5.00;2.57;;;;;;;20.82;37.31;97698.78;6076205;29;20232;-91
2023/06/01 09:56:48;;;;;;;6.13;2.57;;;;;;;20.19;39.35;97623.09;6078378;29;20433;-91
2023/06/01 09:59:52;;;;;;;3.57;2.47;;;;;;;21.75;39.71;97847.16;6071932;29;20244;-92
2023/06/01 10:02:55;;;;;;;7.30;2.53;;;;;;;19.99;44.46;97594.63;6076135;29;20391;-91
2023/06/01 10:05:58;;;;;;;4.53;2.30;;;;;;;19.40;45.96;97518.03;6055397;29;20234;-92
2023/06/01 10:09:01;;;;;;;5.43;2.83;;;;;;;20.40;39.35;97667.53;6081781;29;20239;-92
2023/06/01 10:12:04;;;;;;;7.47;2.50;;;;;;;20.15;40.34;97614.81;6068621;29;20778;-92
2023/06/01 10:15:10;;;;;;;5.20;2.43;;;;;;;21.91;38.73;97831.28;6057708;29;20231;-91
2023/06/01 10:18:32;;;;;;;4.43;2.40;;;;;;;20.59;39.20;97630.31;6074575;29;20251;-92
2023/06/01 10:21:35;;;;;;;5.33;2.67;;;;;;;22.10;40.08;97823.72;6082554;29;20446;-92
2023/06/01 10:24:41;;;;;;;6.63;2.90;;;;;;;20.53;39.12;97558.44;6068139;29;20243;-92
2023/06/01 10:28:04;;;;;;;4.97;2.93;;;;;;;20.77;37.11;97598.72;6082689;29;20236;-92
2023/06/01 10:31:41;;;;;;;9.67;2.90;;;;;;;22.27;36.42;97822.22;6063415;29;20357;-92
2023/06/01 10:34:45;;;;;;;3.23;2.30;;;;;;;22.17;37.45;97811.63;6074170;29;20236;-91
2023/06/01 10:38:07;;;;;;;5.33;2.90;;;;;;;22.39;37.56;97817.00;6079271;29;21467;-91
2023/06/01 10:41:30;;;;;;;5.68;2.67;;;;;;;21.67;38.54;97704.19;6077543;29;20693;-91
2023/06/01 10:44:42;;;;;;;6.20;2.40;;;;;;;22.49;40.29;97813.19;6081097;29;20244;-91
2023/06/01 10:47:45;;;;;;;3.37;2.20;;;;;;;20.99;42.81;97578.13;6081571;29;20712;-91
2023/06/01 10:51:16;;;;;;;5.57;2.50;;;;;;;22.60;38.65;97804.41;6073213;29;20235;-91
2023/06/01 10:54:30;;;;;;;5.88;2.28;;;;;;;21.84;39.16;97679.88;6080030;29;20229;-92
2023/06/01 10:57:39;;;;;;;3.30;2.25;;;;;;;22.13;38.05;97716.50;6089230;29;20773;-96
2023/06/01 11:05:56;;;;;;;4.13;2.33;;;;;;;22.87;38.20;97780.81;6090362;29;20285;-96
2023/06/01 11:09:25;;;;;;;9.63;2.50;;;;;;;22.89;40.73;97784.00;6013030;29;20246;-95
2023/06/01 11:13:26;;;;;;;4.57;2.42;;;;;;;22.88;39.34;97782.41;6077299;29;20648;-96
2023/06/01 11:17:00;;;;;;;;;;;;;;;;;;;;;
2023/06/01 11:21:07;;;;;;;6.35;2.63;;;;;;;20.24;37.34;97396.56;6087249;29;20232;-96
2023/06/01 11:25:09;;;;;;;4.82;2.28;;;;;;;22.55;38.52;97700.59;6067577;29;20224;-96
2023/06/01 11:28:29;;;;;;;3.20;2.60;;;;;;;21.96;36.47;97599.78;6072537;29;20235;-96
2023/06/01 11:32:19;;;;;;;7.93;2.90;;;;;;;21.35;36.58;97505.59;6024612;29;20252;-96
2023/06/01 11:35:47;;;;;;;5.50;2.90;;;;;;;21.60;35.79;97547.41;6078747;29;20228;-96
2023/06/01 11:38:52;;;;;;;5.10;2.75;;;;;;;20.53;37.29;97339.22;6074825;29;20224;-96
2023/06/01 11:42:07;;;;;;;5.63;3.00;;;;;;;22.49;34.95;97620.41;6070406;29;20232;-96
2023/06/01 11:45:22;;;;;;;5.57;2.80;;;;;;;20.75;35.04;97375.44;6066148;29;20238;-96
2023/06/01 11:48:38;;;;;;;3.78;2.70;;;;;;;21.70;35.23;97494.00;6073991;29;20251;-96
2023/06/01 11:52:12;;;;;;;3.78;2.67;;;;;;;20.68;35.35;97324.47;6064236;29;20244;-96
2023/06/01 11:55:27;;;;;;;4.25;2.67;;;;;;;21.43;35.05;97430.88;6086373;29;20606;-95
2023/06/01 11:58:39;;;;;;;3.72;3.03;;;;;;;20.32;35.35;97225.38;6081087;29;20243;-96
2023/06/01 12:02:50;;;;;;;3.90;2.95;;;;;;;21.84;35.26;97476.47;6066042;29;20719;-96
2023/06/01 12:05:54;;;;;;;9.23;3.10;;;;;;;21.03;34.14;97352.41;6085160;29;20608;-96
2023/06/01 12:08:57;;;;;;;5.15;3.10;;;;;;;23.70;34.93;97731.63;6068997;29;20428;-92
2023/06/01 12:12:00;;;;;;;3.47;2.80;;;;;;;23.86;35.83;97732.66;6075446;29;20236;-91
2023/06/01 12:15:03;;;;;;;5.00;2.80;;;;;;;22.81;34.70;97548.50;6073517;29;20250;-91
2023/06/01 12:18:06;;;;;;;7.70;3.00;;;;;;;22.29;35.58;97462.53;6057313;29;20216;-90
2023/06/01 12:21:10;;;;;;;5.82;3.17;;;;;;;22.99;34.38;97581.84;6059938;29;20216;-94
2023/06/01 12:24:13;;;;;;;3.95;2.85;;;;;;;23.85;35.00;97720.19;6077788;29;20200;-91
2023/06/01 12:27:19;;;;;;;7.13;2.83;;;;;;;23.85;34.92;97712.03;6082995;29;20303;-93
2023/06/01 12:30:22;;;;;;;4.85;2.60;;;;;;;21.31;35.38;97304.13;6078098;29;21316;-93
2023/06/01 12:33:35;;;;;;;5.07;2.75;;;;;;;23.82;36.43;97676.50;6085357;29;20285;-94
2023/06/01 12:36:38;;;;;;;16.92;3.80;;;;;;;22.97;37.23;97519.69;6077908;29;20326;-94
2023/06/01 12:39:42;;;;;;;3.83;2.72;;;;;;;23.63;36.19;97557.22;6073203;29;20259;-92
2023/06/01 12:42:45;;;;;;;6.05;3.03;;;;;;;22.03;34.65;97312.56;6054905;29;20231;-93
2023/06/01 12:45:47;;;;;;;6.43;2.80;;;;;;;24.26;35.51;97666.94;6074725;29;20279;-94
2023/06/01 12:48:53;;;;;;;5.82;2.90;;;;;;;23.71;34.47;97654.34;6076292;29;20236;-93
2023/06/01 12:51:56;;;;;;;8.00;3.25;;;;;;;21.42;34.09;97269.34;6060833;29;20244;-93
2023/06/01 12:54:58;;;;;;;4.55;2.88;;;;;;;22.10;34.51;97394.25;6055600;29;20245;-92
2023/06/01 12:58:01;;;;;;;3.53;2.60;;;;;;;21.99;34.72;97374.00;6072820;29;20238;-93
2023/06/01 13:01:04;;;;;;;4.85;3.20;;;;;;;22.41;34.39;97415.72;6074992;29;20232;-94
2023/06/01 13:04:08;;;;;;;5.45;2.92;;;;;;;21.40;37.03;97262.69;6061734;29;20243;-94
2023/06/01 13:07:11;;;;;;;7.20;3.30;;;;;;;21.84;35.54;97315.66;6055095;29;20246;-94
2023/06/01 13:10:14;;;;;;;6.50;3.22;;;;;;;21.96;33.94;97372.72;6072004;29;20236;-93
2023/06/01 13:13:41;;;;;;;5.70;2.78;;;;;;;24.08;36.13;97665.47;6072371;29;20679;-96
2023/06/01 13:16:46;;;;;;;4.68;3.20;;;;;;;22.64;34.71;97436.06;6080207;29;20666;-93
2023/06/01 13:19:50;;;;;;;5.50;3.10;;;;;;;22.01;34.01;97303.94;6081173;29;20700;-92
2023/06/01 13:22:57;;;;;;;6.03;3.08;;;;;;;22.20;34.46;97379.56;6080690;29;20594;-93
2023/06/01 13:26:00;;;;;;;3.58;2.97;;;;;;;22.30;36.35;97381.91;6077701;29;20594;-93
2023/06/01 13:29:06;;;;;;;4.43;2.83;;;;;;;23.55;37.58;97552.66;6083385;29;20232;-94
2023/06/01 13:32:08;;;;;;;3.63;2.70;;;;;;;21.97;35.71;97301.13;6063711;29;20235;-92
2023/06/01 13:35:11;;;;;;;6.78;3.28;;;;;;;22.82;35.24;97455.81;6074380;29;20382;-95
2023/06/01 13:38:14;;;;;;;3.35;2.72;;;;;;;22.39;37.64;97388.91;6059517;29;20235;-94
2023/06/01 13:41:17;;;;;;;3.58;2.80;;;;;;;21.71;36.43;97270.56;6071976;29;20228;-93
2023/06/01 13:44:20;;;;;;;6.60;3.20;;;;;;;22.86;35.59;97448.59;6077295;29;20352;-94
2023/06/01 13:47:23;;;;;;;3.60;2.83;;;;;;;21.93;35.96;97302.88;6078103;29;20244;-93
2023/06/01 13:50:26;;;;;;;6.38;3.08;;;;;;;22.40;36.38;97367.97;6074823;29;20246;-93
2023/06/01 13:53:28;;;;;;;4.03;2.97;;;;;;;22.18;39.05;97373.69;6061913;29;20307;-94
2023/06/01 13:56:31;;;;;;;4.95;2.72;;;;;;;22.95;38.95;97493.94;6064300;29;20231;-93
2023/06/01 13:59:35;;;;;;;6.00;3.30;;;;;;;23.44;38.81;97612.81;6077079;29;20655;-93
2023/06/01 14:02:38;;;;;;;5.03;3.15;;;;;;;21.60;38.24;97297.22;6068075;29;20371;-93
2023/06/01 14:05:41;;;;;;;4.10;2.50;;;;;;;20.58;37.78;97143.44;6077459;29;20791;-94
2023/06/01 14:08:56;;;;;;;4.38;3.08;;;;;;;21.56;43.55;97323.38;6074431;29;20755;-94
2023/06/01 14:11:58;;;;;;;4.40;2.95;;;;;;;20.97;43.80;97255.38;6080355;29;20286;-94
2023/06/01 14:15:01;;;;;;;4.55;2.90;;;;;;;21.19;44.99;97308.59;6082204;29;20240;-94
2023/06/01 14:18:03;;;;;;;5.22;3.20;;;;;;;20.95;45.97;97322.59;6049802;29;20232;-94
2023/06/01 14:21:06;;;;;;;3.42;2.90;;;;;;;20.84;45.36;97279.59;6071425;29;20280;-94
2023/06/01 14:24:11;;;;;;;4.10;3.20;;;;;;;22.40;44.56;97550.63;6074885;29;20223;-94
2023/06/01 14:27:15;;;;;;;4.95;2.88;;;;;;;19.90;45.28;97123.31;6069894;29;20216;-94
2023/06/01 14:30:17;;;;;;;4.03;2.95;;;;;;;20.32;48.40;97202.94;6069447;29;20208;-95
2023/06/01 14:33:50;;;;;;;3.88;3.22;;;;;;;22.56;49.80;97563.69;6053656;29;20228;-93
2023/06/01 14:36:53;;;;;;;6.53;3.28;;;;;;;21.69;50.06;97487.78;6052521;29;20601;-93
2023/06/01 14:39:56;;;;;;;5.32;3.25;;;;;;;20.54;51.08;97313.78;6070439;29;20250;-93
2023/06/01 14:43:10;;;;;;;4.75;3.20;;;;;;;22.29;48.91;97562.16;6064419;29;20243;-94
2023/06/01 14:46:24;;;;;;;5.22;3.40;;;;;;;19.23;47.29;97092.75;6090515;29;20239;-94
2023/06/01 14:49:41;;;;;;;5.70;3.13;;;;;;;21.53;45.06;97397.22;6077630;29;20318;-93
2023/06/01 14:53:00;;;;;;;4.00;3.15;;;;;;;22.67;48.29;97589.41;6063785;29;20232;-95